Time;durP1;ratioP1;P1;durP2;ratioP2;P2;SDS_P1;SDS_P2;PMS_P1;PMS_P2;Temp;Humidity;BMP_temperature;BMP_pressure;BME280_temperature;BME280_humidity;BME280_pressure;Samples;Min_cycle;Max_cycle;Signal;HPM_P1;HPM_P2
2023/08/29 00:01:20;;;;;;;304.73;212.20;;;;;;;;;;5034973;28;20542;-57
2023/08/29 00:03:46;;;;;;;330.67;209.13;;;;;;;;;;5034841;28;20220;-57
2023/08/29 00:06:12;;;;;;;336.60;210.30;;;;;;;;;;5034495;28;20184;-61
2023/08/29 00:08:38;;;;;;;374.33;216.30;;;;;;;;;;5034797;28;20318;-57
2023/08/29 00:11:04;;;;;;;333.80;213.83;;;;;;;;;;5034695;28;20282;-58
2023/08/29 00:13:30;;;;;;;312.07;192.93;;;;;;;;;;5034561;28;20215;-60
2023/08/29 00:15:56;;;;;;;350.13;211.40;;;;;;;;;;5034374;28;20175;-61
2023/08/29 00:18:22;;;;;;;363.00;209.33;;;;;;;;;;5034611;28;20661;-62
2023/08/29 00:20:49;;;;;;;299.40;210.57;;;;;;;;;;5034565;28;20657;-61
2023/08/29 00:23:15;;;;;;;330.13;210.97;;;;;;;;;;5034546;28;20199;-60
2023/08/29 00:25:41;;;;;;;358.00;217.00;;;;;;;;;;5034206;28;20176;-58
2023/08/29 00:28:07;;;;;;;375.90;208.27;;;;;;;;;;5034457;28;20235;-60
2023/08/29 00:30:36;;;;;;;382.37;201.27;;;;;;;;;;5034348;28;20764;-61
2023/08/29 00:33:03;;;;;;;380.00;206.90;;;;;;;;;;5034323;28;20543;-54
2023/08/29 00:35:29;;;;;;;401.37;220.70;;;;;;;;;;5033850;28;20203;-57
2023/08/29 00:37:55;;;;;;;350.13;205.97;;;;;;;;;;5034324;28;20176;-58
2023/08/29 00:40:21;;;;;;;349.20;200.07;;;;;;;;;;5034198;28;20176;-56
2023/08/29 00:42:47;;;;;;;379.43;196.23;;;;;;;;;;5034230;28;20230;-55
2023/08/29 00:45:13;;;;;;;386.03;214.37;;;;;;;;;;5033791;28;20597;-61
2023/08/29 00:47:40;;;;;;;389.03;212.07;;;;;;;;;;5033982;28;20172;-60
2023/08/29 00:50:09;;;;;;;362.00;213.13;;;;;;;;;;5033940;28;20258;-55
2023/08/29 00:52:35;;;;;;;337.40;193.40;;;;;;;;;;5034057;28;20168;-56
2023/08/29 00:55:02;;;;;;;335.77;197.27;;;;;;;;;;5033316;28;20287;-57
2023/08/29 00:57:28;;;;;;;316.33;201.17;;;;;;;;;;5033780;28;20599;-59
2023/08/29 00:59:54;;;;;;;371.97;204.53;;;;;;;;;;5033863;28;20195;-62
2023/08/29 01:02:20;;;;;;;357.87;197.20;;;;;;;;;;5016043;28;20176;-58
2023/08/29 01:04:46;;;;;;;375.10;206.50;;;;;;;;;;5033642;28;20204;-57
2023/08/29 01:07:12;;;;;;;402.87;200.40;;;;;;;;;;5033481;28;20180;-58
2023/08/29 01:09:38;;;;;;;386.17;197.73;;;;;;;;;;5033655;28;20184;-54
2023/08/29 01:12:12;;;;;;;362.57;195.53;;;;;;;;;;5033562;28;20207;-57
2023/08/29 01:14:55;;;;;;;384.40;212.97;;;;;;;;;;5033570;28;20196;-56
2023/08/29 01:17:30;;;;;;;407.67;204.37;;;;;;;;;;5033353;28;20179;-61
2023/08/29 01:19:56;;;;;;;419.03;202.50;;;;;;;;;;5033425;28;20569;-53
2023/08/29 01:22:27;;;;;;;419.37;208.93;;;;;;;;;;5033453;28;20721;-56
2023/08/29 01:24:58;;;;;;;403.23;217.23;;;;;;;;;;5033463;28;20208;-58
2023/08/29 01:27:25;;;;;;;385.67;202.43;;;;;;;;;;5033177;28;20180;-57
2023/08/29 01:29:51;;;;;;;394.40;213.47;;;;;;;;;;5033308;28;20180;-57
2023/08/29 01:32:17;;;;;;;404.40;209.37;;;;;;;;;;5032956;28;20577;-55
2023/08/29 01:34:44;;;;;;;413.70;212.77;;;;;;;;;;5033098;28;20192;-55
2023/08/29 01:37:10;;;;;;;397.13;208.63;;;;;;;;;;5032987;28;20191;-61
2023/08/29 01:39:36;;;;;;;387.43;210.30;;;;;;;;;;5033199;28;20200;-54
2023/08/29 01:42:02;;;;;;;373.73;208.07;;;;;;;;;;5033085;28;20255;-58
2023/08/29 01:44:28;;;;;;;376.07;211.97;;;;;;;;;;5032840;28;20258;-60
2023/08/29 01:46:54;;;;;;;360.27;198.87;;;;;;;;;;5032682;28;20207;-60
2023/08/29 01:49:20;;;;;;;372.53;205.20;;;;;;;;;;5032909;28;20172;-55
2023/08/29 01:51:46;;;;;;;387.57;192.37;;;;;;;;;;5032850;28;20615;-58
2023/08/29 01:54:12;;;;;;;397.17;203.07;;;;;;;;;;5032776;28;20203;-58
2023/08/29 01:56:39;;;;;;;414.43;207.63;;;;;;;;;;5032509;28;20180;-54
2023/08/29 01:59:06;;;;;;;421.63;213.90;;;;;;;;;;5032748;28;20176;-55
2023/08/29 02:01:32;;;;;;;394.57;204.83;;;;;;;;;;5032473;28;20171;-57
2023/08/29 02:03:58;;;;;;;390.43;209.20;;;;;;;;;;5032559;28;20214;-54
2023/08/29 02:06:24;;;;;;;392.33;207.87;;;;;;;;;;5031680;28;20237;-51
2023/08/29 02:08:50;;;;;;;407.03;206.37;;;;;;;;;;5032731;28;20184;-57
2023/08/29 02:11:17;;;;;;;396.80;203.27;;;;;;;;;;5032469;28;20231;-56
2023/08/29 02:13:42;;;;;;;398.97;201.67;;;;;;;;;;5032435;28;20199;-53
2023/08/29 02:16:08;;;;;;;414.90;204.73;;;;;;;;;;5032098;28;20176;-58
2023/08/29 02:18:34;;;;;;;418.40;204.37;;;;;;;;;;5032365;28;20179;-61
2023/08/29 02:21:00;;;;;;;426.70;208.03;;;;;;;;;;5032354;28;20175;-58
2023/08/29 02:23:26;;;;;;;431.37;205.00;;;;;;;;;;5032235;28;20215;-60
2023/08/29 02:26:05;;;;;;;434.73;197.17;;;;;;;;;;5031989;28;20180;-58
2023/08/29 02:28:38;;;;;;;435.40;202.67;;;;;;;;;;5032251;28;20554;-60
2023/08/29 02:31:08;;;;;;;436.40;207.13;;;;;;;;;;5032158;28;20266;-58
2023/08/29 02:33:35;;;;;;;437.20;202.73;;;;;;;;;;5032062;28;20252;-58
2023/08/29 02:36:01;;;;;;;431.07;199.47;;;;;;;;;;5031928;28;20176;-59
2023/08/29 02:38:27;;;;;;;436.20;206.70;;;;;;;;;;5032181;28;20542;-58
2023/08/29 02:40:53;;;;;;;433.17;198.20;;;;;;;;;;5032059;28;20180;-60
2023/08/29 02:43:19;;;;;;;435.53;204.73;;;;;;;;;;5031709;28;20638;-61
2023/08/29 02:45:45;;;;;;;431.07;192.77;;;;;;;;;;5031917;28;20233;-60
2023/08/29 02:48:11;;;;;;;433.77;202.80;;;;;;;;;;5031941;28;20645;-57
2023/08/29 02:50:37;;;;;;;437.37;207.97;;;;;;;;;;5031867;28;20743;-58
2023/08/29 02:53:03;;;;;;;429.37;197.33;;;;;;;;;;5031894;28;20256;-57
2023/08/29 02:55:30;;;;;;;441.63;213.50;;;;;;;;;;5031471;28;20196;-58
2023/08/29 02:57:56;;;;;;;436.03;211.40;;;;;;;;;;5031814;28;20639;-59
2023/08/29 03:00:21;;;;;;;427.43;197.40;;;;;;;;;;5031828;28;20175;-62
2023/08/29 03:02:47;;;;;;;428.17;197.40;;;;;;;;;;5031770;28;20290;-58
2023/08/29 03:05:13;;;;;;;436.77;213.57;;;;;;;;;;5031468;28;20195;-57
2023/08/29 03:07:39;;;;;;;428.70;199.80;;;;;;;;;;5031650;28;20693;-57
2023/08/29 03:10:06;;;;;;;427.67;197.20;;;;;;;;;;5031651;28;20176;-58
2023/08/29 03:12:31;;;;;;;429.57;205.10;;;;;;;;;;5031656;28;20668;-56
2023/08/29 03:14:57;;;;;;;428.67;203.67;;;;;;;;;;5031429;28;20196;-59
2023/08/29 03:17:23;;;;;;;429.17;196.00;;;;;;;;;;5033396;28;20262;-57
2023/08/29 03:19:49;;;;;;;428.77;202.87;;;;;;;;;;5035774;28;20174;-58
2023/08/29 03:22:15;;;;;;;428.77;205.87;;;;;;;;;;5035709;28;20630;-56
2023/08/29 03:24:46;;;;;;;420.17;187.57;;;;;;;;;;5035571;28;20192;-58
2023/08/29 03:27:12;;;;;;;424.03;195.33;;;;;;;;;;5035387;28;20219;-57
2023/08/29 03:29:38;;;;;;;425.87;192.63;;;;;;;;;;5035534;28;20211;-57
2023/08/29 03:32:04;;;;;;;422.60;195.33;;;;;;;;;;5035436;28;20249;-61
2023/08/29 03:34:30;;;;;;;426.10;200.60;;;;;;;;;;5035377;28;20206;-58
2023/08/29 03:36:56;;;;;;;424.87;198.73;;;;;;;;;;5035129;28;20262;-60
2023/08/29 03:39:22;;;;;;;422.40;191.13;;;;;;;;;;5035371;28;20199;-59
2023/08/29 03:41:48;;;;;;;424.47;194.70;;;;;;;;;;5035257;28;20275;-58
2023/08/29 03:44:14;;;;;;;423.87;196.10;;;;;;;;;;5090961;22;20314;-53
2023/08/29 03:46:40;;;;;;;427.23;198.37;;;;;;;;;;5034254;28;20709;-55
2023/08/29 03:49:05;;;;;;;418.70;184.00;;;;;;;;;;5034975;28;20172;-54
2023/08/29 03:51:31;;;;;;;418.50;184.07;;;;;;;;;;5035152;28;20470;-51
2023/08/29 03:53:57;;;;;;;418.57;186.53;;;;;;;;;;5035092;28;20211;-52
2023/08/29 03:56:23;;;;;;;424.13;198.17;;;;;;;;;;5034802;28;20173;-52
2023/08/29 03:58:49;;;;;;;421.30;190.00;;;;;;;;;;5034962;28;20235;-49
2023/08/29 04:01:19;;;;;;;422.97;194.07;;;;;;;;;;5034925;28;20182;-50
2023/08/29 04:03:45;;;;;;;425.10;200.60;;;;;;;;;;5034722;28;20696;-53
2023/08/29 04:06:11;;;;;;;419.33;186.90;;;;;;;;;;5034612;28;20677;-51
2023/08/29 04:08:37;;;;;;;420.73;191.77;;;;;;;;;;5034761;28;20184;-54
2023/08/29 04:11:04;;;;;;;420.23;189.00;;;;;;;;;;5034295;28;20206;-53
2023/08/29 04:13:30;;;;;;;417.37;187.20;;;;;;;;;;5034569;28;20168;-51
2023/08/29 04:16:01;;;;;;;413.63;182.30;;;;;;;;;;5034246;28;20202;-53
2023/08/29 04:18:27;;;;;;;414.70;189.03;;;;;;;;;;5034614;28;20175;-51
2023/08/29 04:20:53;;;;;;;412.53;182.43;;;;;;;;;;5034585;28;20230;-54
2023/08/29 04:23:19;;;;;;;412.10;185.43;;;;;;;;;;5034546;28;20658;-54
2023/08/29 04:25:45;;;;;;;413.47;184.63;;;;;;;;;;5034405;28;20290;-56
2023/08/29 04:28:12;;;;;;;414.30;190.60;;;;;;;;;;5033890;28;20203;-57
2023/08/29 04:30:38;;;;;;;412.30;185.73;;;;;;;;;;5034264;28;20192;-55
2023/08/29 04:33:04;;;;;;;413.40;184.70;;;;;;;;;;5034489;28;20176;-56
2023/08/29 04:35:30;;;;;;;417.50;189.03;;;;;;;;;;5034028;28;20722;-55
2023/08/29 04:37:56;;;;;;;411.37;184.37;;;;;;;;;;5034273;28;20211;-55
2023/08/29 04:40:22;;;;;;;411.90;185.40;;;;;;;;;;5034321;28;20179;-54
2023/08/29 04:42:48;;;;;;;412.80;183.20;;;;;;;;;;5034286;28;20175;-50
2023/08/29 04:45:14;;;;;;;419.93;189.47;;;;;;;;;;5033785;28;20586;-52
2023/08/29 04:47:40;;;;;;;411.10;180.17;;;;;;;;;;5034107;28;20179;-53
2023/08/29 04:50:07;;;;;;;412.23;183.63;;;;;;;;;;5034106;28;20172;-55
2023/08/29 04:52:33;;;;;;;411.03;182.33;;;;;;;;;;5033927;28;20211;-50
2023/08/29 04:54:59;;;;;;;416.83;183.93;;;;;;;;;;5033831;28;20194;-50
2023/08/29 04:57:25;;;;;;;421.20;203.93;;;;;;;;;;5033850;28;20655;-56
2023/08/29 04:59:51;;;;;;;436.57;235.37;;;;;;;;;;5033909;28;20539;-54
2023/08/29 05:02:17;;;;;;;418.87;194.87;;;;;;;;;;5033480;28;20191;-54
2023/08/29 05:04:44;;;;;;;415.97;192.30;;;;;;;;;;5033761;28;20614;-54
2023/08/29 05:07:10;;;;;;;409.83;178.00;;;;;;;;;;5033536;28;20175;-53
2023/08/29 05:09:36;;;;;;;410.00;175.77;;;;;;;;;;5032152;28;20542;-52
2023/08/29 05:12:02;;;;;;;415.63;197.30;;;;;;;;;;5032385;28;20198;-54
2023/08/29 05:14:28;;;;;;;407.87;171.70;;;;;;;;;;5033549;28;20306;-49
2023/08/29 05:16:54;;;;;;;410.93;182.87;;;;;;;;;;5033332;28;20642;-50
2023/08/29 05:19:20;;;;;;;407.83;176.57;;;;;;;;;;5033587;28;20247;-50
2023/08/29 05:21:46;;;;;;;410.17;178.37;;;;;;;;;;5033497;28;20182;-53
2023/08/29 05:24:12;;;;;;;407.37;178.63;;;;;;;;;;5033431;28;20701;-54
2023/08/29 05:26:38;;;;;;;408.30;177.23;;;;;;;;;;5033141;28;20187;-55
2023/08/29 05:29:04;;;;;;;408.93;180.50;;;;;;;;;;5033365;28;20187;-56
2023/08/29 05:31:30;;;;;;;405.10;171.07;;;;;;;;;;5033336;28;20206;-54
2023/08/29 05:33:56;;;;;;;410.87;180.37;;;;;;;;;;5032481;28;20333;-52
2023/08/29 05:36:22;;;;;;;407.87;174.50;;;;;;;;;;5032136;28;20172;-54
2023/08/29 05:38:48;;;;;;;417.87;190.20;;;;;;;;;;5032977;28;20176;-53
2023/08/29 05:41:14;;;;;;;425.47;219.97;;;;;;;;;;5032032;28;20571;-51
2023/08/29 05:43:41;;;;;;;410.27;182.20;;;;;;;;;;5032763;28;20555;-50
2023/08/29 05:46:07;;;;;;;413.37;186.90;;;;;;;;;;5031758;28;20669;-54
2023/08/29 05:48:33;;;;;;;407.20;179.30;;;;;;;;;;5032816;28;20180;-49
2023/08/29 05:50:59;;;;;;;409.63;169.93;;;;;;;;;;5032521;28;20223;-51
2023/08/29 05:53:25;;;;;;;416.60;179.83;;;;;;;;;;5032443;28;20207;-53
2023/08/29 05:55:51;;;;;;;418.40;173.80;;;;;;;;;;5032280;28;20746;-51
2023/08/29 05:58:17;;;;;;;410.07;168.90;;;;;;;;;;5032500;28;20168;-50
2023/08/29 06:00:43;;;;;;;409.67;175.53;;;;;;;;;;5032611;28;20318;-52
2023/08/29 06:03:09;;;;;;;404.80;161.43;;;;;;;;;;5032730;28;20250;-51
2023/08/29 06:05:36;;;;;;;409.57;167.87;;;;;;;;;;5032646;28;20207;-56
2023/08/29 06:08:02;;;;;;;405.57;161.03;;;;;;;;;;5032303;28;20673;-52
2023/08/29 06:10:28;;;;;;;405.53;166.70;;;;;;;;;;5030858;28;20186;-55
2023/08/29 06:12:55;;;;;;;407.27;168.33;;;;;;;;;;5032478;28;20217;-54
2023/08/29 06:15:22;;;;;;;411.27;172.70;;;;;;;;;;5031803;28;20208;-51
2023/08/29 06:17:48;;;;;;;403.40;160.03;;;;;;;;;;5032376;28;20642;-51
2023/08/29 06:20:14;;;;;;;404.73;164.17;;;;;;;;;;5031586;28;20187;-51
2023/08/29 06:22:40;;;;;;;405.00;168.27;;;;;;;;;;5032014;28;20178;-51
2023/08/29 06:25:06;;;;;;;406.40;163.47;;;;;;;;;;5032137;28;20677;-50
2023/08/29 06:27:33;;;;;;;404.67;165.70;;;;;;;;;;5032126;28;20222;-53
2023/08/29 06:29:59;;;;;;;402.07;162.33;;;;;;;;;;5032358;28;20666;-51
2023/08/29 06:32:25;;;;;;;403.40;164.50;;;;;;;;;;5032246;28;20199;-54
2023/08/29 06:34:51;;;;;;;401.43;159.47;;;;;;;;;;5031960;28;20200;-52
2023/08/29 06:37:17;;;;;;;401.77;164.37;;;;;;;;;;5031846;28;20172;-53
2023/08/29 06:39:43;;;;;;;402.93;162.83;;;;;;;;;;5032126;28;20179;-54
2023/08/29 06:42:09;;;;;;;406.80;173.43;;;;;;;;;;5031991;28;20667;-51
2023/08/29 06:44:35;;;;;;;399.67;159.57;;;;;;;;;;5031832;28;20301;-51
2023/08/29 06:47:01;;;;;;;404.20;165.63;;;;;;;;;;5031694;28;20175;-49
2023/08/29 06:49:27;;;;;;;402.53;162.07;;;;;;;;;;5031892;28;20245;-50
2023/08/29 06:51:53;;;;;;;402.40;161.03;;;;;;;;;;5031571;28;20199;-53
2023/08/29 06:54:19;;;;;;;398.07;152.83;;;;;;;;;;5031854;28;20279;-47
2023/08/29 06:56:45;;;;;;;397.50;151.07;;;;;;;;;;5031517;28;20178;-52
2023/08/29 06:59:11;;;;;;;400.00;164.67;;;;;;;;;;5031920;28;20199;-53
2023/08/29 07:01:37;;;;;;;399.07;155.57;;;;;;;;;;5031861;28;20175;-52
2023/08/29 07:04:04;;;;;;;397.50;156.90;;;;;;;;;;5031901;28;20317;-53
2023/08/29 07:06:30;;;;;;;393.23;149.20;;;;;;;;;;5031459;28;20660;-54
2023/08/29 07:08:56;;;;;;;397.00;158.40;;;;;;;;;;5031922;28;20183;-55
2023/08/29 07:11:22;;;;;;;393.80;152.00;;;;;;;;;;5031429;28;20199;-53
2023/08/29 07:13:49;;;;;;;398.97;152.97;;;;;;;;;;5031721;28;20598;-52
2023/08/29 07:16:15;;;;;;;395.67;153.83;;;;;;;;;;5030054;28;20190;-55
2023/08/29 07:18:41;;;;;;;396.43;152.87;;;;;;;;;;5031665;28;20171;-55
2023/08/29 07:21:07;;;;;;;390.97;150.33;;;;;;;;;;5031656;28;20176;-48
2023/08/29 07:23:33;;;;;;;399.13;166.60;;;;;;;;;;5031633;28;20634;-55
2023/08/29 07:25:59;;;;;;;401.73;166.67;;;;;;;;;;5031180;28;20295;-54
2023/08/29 07:28:25;;;;;;;397.53;159.20;;;;;;;;;;5031574;28;20188;-57
2023/08/29 07:30:51;;;;;;;395.87;155.83;;;;;;;;;;5031439;28;20251;-49
2023/08/29 07:33:18;;;;;;;399.33;160.53;;;;;;;;;;5031577;28;20217;-52
2023/08/29 07:35:45;;;;;;;396.50;152.27;;;;;;;;;;5031464;28;20647;-54
2023/08/29 07:38:12;;;;;;;395.57;154.23;;;;;;;;;;5031679;28;20187;-51
2023/08/29 07:40:38;;;;;;;395.90;156.80;;;;;;;;;;5031431;28;20870;-51
2023/08/29 07:43:05;;;;;;;396.07;155.03;;;;;;;;;;5031432;28;20186;-51
2023/08/29 07:45:31;;;;;;;398.80;162.50;;;;;;;;;;5030905;28;20653;-52
2023/08/29 07:47:58;;;;;;;395.93;153.50;;;;;;;;;;5031434;28;20218;-51
2023/08/29 07:50:24;;;;;;;395.03;154.90;;;;;;;;;;5031354;28;20179;-51
2023/08/29 07:52:50;;;;;;;399.53;162.57;;;;;;;;;;5031412;28;20674;-52
2023/08/29 07:55:16;;;;;;;401.83;164.90;;;;;;;;;;5031038;28;20238;-49
2023/08/29 07:57:43;;;;;;;397.30;160.17;;;;;;;;;;5031242;28;20173;-51
2023/08/29 08:00:10;;;;;;;393.13;156.87;;;;;;;;;;5031211;28;20262;-52
2023/08/29 08:02:38;;;;;;;389.77;149.70;;;;;;;;;;5031489;28;20558;-51
2023/08/29 08:05:07;;;;;;;397.27;155.60;;;;;;;;;;5033856;28;20192;-51
2023/08/29 08:07:33;;;;;;;398.03;161.93;;;;;;;;;;5034725;28;20180;-55
2023/08/29 08:09:59;;;;;;;400.17;167.00;;;;;;;;;;5034874;28;20226;-52
2023/08/29 08:12:25;;;;;;;399.63;164.07;;;;;;;;;;5034686;28;20559;-54
2023/08/29 08:14:53;;;;;;;401.60;166.07;;;;;;;;;;5034620;28;20196;-50
2023/08/29 08:17:19;;;;;;;401.53;169.43;;;;;;;;;;5034387;28;20183;-50
2023/08/29 08:19:44;;;;;;;396.60;162.33;;;;;;;;;;5031672;28;20176;-55
2023/08/29 08:22:11;;;;;;;399.80;168.73;;;;;;;;;;5033644;28;20180;-51
2023/08/29 08:24:37;;;;;;;403.77;172.33;;;;;;;;;;5034312;28;20872;-49
2023/08/29 08:27:05;;;;;;;399.10;164.00;;;;;;;;;;5034112;28;20179;-49
2023/08/29 08:29:31;;;;;;;401.47;175.63;;;;;;;;;;5034330;28;20207;-51
2023/08/29 08:31:58;;;;;;;399.07;169.43;;;;;;;;;;5034380;28;20231;-50
2023/08/29 08:34:24;;;;;;;401.03;169.47;;;;;;;;;;5034262;28;20194;-55
2023/08/29 08:36:50;;;;;;;405.83;182.20;;;;;;;;;;5035251;28;20184;-53
2023/08/29 08:39:16;;;;;;;401.17;170.17;;;;;;;;;;5038208;28;20180;-52
2023/08/29 08:41:43;;;;;;;404.00;174.73;;;;;;;;;;5059187;28;20183;-52
2023/08/29 08:44:10;;;;;;;403.00;175.43;;;;;;;;;;5038202;28;20757;-51
2023/08/29 08:46:36;;;;;;;400.50;170.47;;;;;;;;;;5035482;28;20195;-54
2023/08/29 08:49:02;;;;;;;403.70;175.40;;;;;;;;;;5035765;28;20191;-53
2023/08/29 08:51:30;;;;;;;401.57;172.13;;;;;;;;;;5035282;28;20231;-52
2023/08/29 08:53:56;;;;;;;404.23;175.30;;;;;;;;;;5037588;28;20208;-55
2023/08/29 08:56:23;;;;;;;403.50;176.60;;;;;;;;;;5035734;28;20222;-51
2023/08/29 08:58:50;;;;;;;403.63;170.57;;;;;;;;;;5035654;28;20207;-51
2023/08/29 09:01:16;;;;;;;403.00;174.27;;;;;;;;;;5034349;28;20270;-56
2023/08/29 09:03:45;;;;;;;410.00;186.60;;;;;;;;;;5035375;28;20283;-56
2023/08/29 09:06:11;;;;;;;402.87;182.63;;;;;;;;;;5031945;28;20187;-53
2023/08/29 09:08:37;;;;;;;406.13;185.43;;;;;;;;;;5035338;28;20188;-53
2023/08/29 09:11:04;;;;;;;401.17;171.40;;;;;;;;;;5035057;28;20207;-51
2023/08/29 09:13:31;;;;;;;404.50;180.37;;;;;;;;;;5035487;28;20208;-51
2023/08/29 09:16:00;;;;;;;408.60;186.80;;;;;;;;;;5036561;28;20250;-52
2023/08/29 09:18:28;;;;;;;404.03;179.97;;;;;;;;;;5034196;28;20182;-50
2023/08/29 09:20:58;;;;;;;410.37;188.20;;;;;;;;;;5059505;28;20646;-54
2023/08/29 09:23:25;;;;;;;403.63;182.27;;;;;;;;;;5034961;28;20191;-52
2023/08/29 09:25:58;;;;;;;410.07;195.20;;;;;;;;;;5035676;28;20250;-55
2023/08/29 09:28:27;;;;;;;408.30;194.50;;;;;;;;;;5035326;28;20184;-50
2023/08/29 09:30:53;;;;;;;410.20;193.47;;;;;;;;;;5034995;28;20196;-52
2023/08/29 09:33:21;;;;;;;408.13;198.83;;;;;;;;;;5033086;28;20539;-53
2023/08/29 09:35:47;;;;;;;408.67;200.97;;;;;;;;;;5032772;28;20183;-51
2023/08/29 09:38:13;;;;;;;410.53;204.40;;;;;;;;;;5032829;28;20181;-54
2023/08/29 09:40:46;;;;;;;416.23;210.17;;;;;;;;;;5031113;28;20724;-56
2023/08/29 09:43:14;;;;;;;412.77;214.47;;;;;;;;;;5028799;28;20176;-51
2023/08/29 09:45:40;;;;;;;413.57;212.30;;;;;;;;;;5032572;28;20249;-51
2023/08/29 09:48:07;;;;;;;425.23;225.20;;;;;;;;;;5031788;28;20176;-52
2023/08/29 09:50:33;;;;;;;415.80;217.37;;;;;;;;;;5040148;28;20187;-51
2023/08/29 09:53:00;;;;;;;414.00;212.33;;;;;;;;;;5044936;28;20672;-52
2023/08/29 09:55:26;;;;;;;422.17;223.93;;;;;;;;;;5044095;28;20199;-53
2023/08/29 09:57:53;;;;;;;414.53;212.17;;;;;;;;;;5048146;28;20260;-52
2023/08/29 10:00:23;;;;;;;413.07;210.03;;;;;;;;;;5032461;28;20586;-51
2023/08/29 10:02:51;;;;;;;416.43;216.00;;;;;;;;;;5043094;28;20183;-53
2023/08/29 10:05:22;;;;;;;418.70;217.13;;;;;;;;;;5036928;28;20306;-49
2023/08/29 10:07:49;;;;;;;416.33;212.60;;;;;;;;;;5051353;28;20535;-54
2023/08/29 10:10:15;;;;;;;413.90;210.57;;;;;;;;;;5045749;28;20183;-49
2023/08/29 10:12:42;;;;;;;414.20;211.80;;;;;;;;;;5042003;28;20285;-51
2023/08/29 10:15:09;;;;;;;417.40;215.10;;;;;;;;;;5038518;28;20203;-55
2023/08/29 10:17:36;;;;;;;416.87;212.10;;;;;;;;;;5031284;28;20168;-50
2023/08/29 10:20:13;;;;;;;409.27;205.87;;;;;;;;;;5051716;28;20261;-49
2023/08/29 10:22:45;;;;;;;417.70;212.43;;;;;;;;;;5049300;28;20171;-53
2023/08/29 10:25:13;;;;;;;418.17;213.50;;;;;;;;;;5031819;28;20570;-50
2023/08/29 10:27:39;;;;;;;411.67;204.07;;;;;;;;;;5028999;28;20782;-49
2023/08/29 10:30:06;;;;;;;413.03;205.97;;;;;;;;;;5031622;28;20176;-49
2023/08/29 10:32:34;;;;;;;413.00;206.50;;;;;;;;;;5031795;28;20777;-53
2023/08/29 10:35:00;;;;;;;413.47;208.00;;;;;;;;;;5031873;28;20203;-48
2023/08/29 10:37:27;;;;;;;413.00;203.50;;;;;;;;;;5032334;28;20183;-50
2023/08/29 10:39:53;;;;;;;409.17;200.07;;;;;;;;;;5031705;28;20184;-48
2023/08/29 10:42:19;;;;;;;409.27;199.37;;;;;;;;;;5030772;28;20172;-50
2023/08/29 10:44:47;;;;;;;428.60;241.77;;;;;;;;;;5031136;28;20310;-51
2023/08/29 10:47:31;;;;;;;439.83;215.10;;;14.70;99.90;;;;;;5031238;28;20172;-50
2023/08/29 10:50:07;;;;;;;435.67;215.17;;;14.70;99.90;;;;;;5031056;28;20183;-53
2023/08/29 10:52:41;;;;;;;424.83;240.53;;;14.70;99.90;;;;;;5031868;28;20212;-51
2023/08/29 10:55:23;;;;;;;477.47;261.23;;;;;;;;;;5030450;28;20558;-49
2023/08/29 10:57:51;;;;;;;444.67;227.03;;;14.90;99.90;;;;;;5032041;28;20602;-49
2023/08/29 11:00:20;;;;;;;446.67;225.73;;;;;;;;;;5031797;28;20658;-52
2023/08/29 11:02:47;;;;;;;441.47;225.30;;;;;;;;;;5031496;28;20613;-48
2023/08/29 11:05:15;;;;;;;125.47;83.57;;;14.90;99.90;;;;;;5030021;28;20616;-50
2023/08/29 11:07:41;;;;;;;5.93;4.10;;;;;;;;;;5029538;28;20184;-49
2023/08/29 11:10:20;;;;;;;0.80;0.80;;;14.60;99.90;;;;;;5030273;28;20176;-48
2023/08/29 11:13:07;;;;;;;0.40;0.40;;;14.30;99.90;;;;;;5028802;28;20212;-50
2023/08/29 11:16:03;;;;;;;0.30;0.30;;;14.60;99.90;;;;;;5029550;28;20188;-56
2023/08/29 11:18:30;;;;;;;0.43;0.40;;;;;;;;;;5031654;28;20906;-54
2023/08/29 11:20:57;;;;;;;0.30;0.30;;;15.20;99.90;;;;;;5030750;28;20180;-52
2023/08/29 11:23:22;;;;;;;0.23;0.23;;;15.10;99.90;;;;;;5031419;28;20183;-52
2023/08/29 11:25:51;;;;;;;0.50;0.30;;;14.80;99.90;;;;;;5031061;28;20204;-52
2023/08/29 11:28:18;;;;;;;0.20;0.20;;;14.90;99.90;;;;;;5031283;28;20272;-56
2023/08/29 11:30:47;;;;;;;0.40;0.40;;;14.90;99.90;;;;;;5029938;28;20229;-50
2023/08/29 11:33:14;;;;;;;0.30;0.30;;;14.70;99.90;;;;;;5031478;28;20183;-51
2023/08/29 11:35:39;;;;;;;1.53;0.40;;;15.00;99.90;;;;;;5031265;28;20579;-48
2023/08/29 11:38:05;;;;;;;0.30;0.30;;;14.70;99.90;;;;;;5031549;28;20207;-51
2023/08/29 11:40:32;;;;;;;0.43;0.30;;;14.90;99.90;;;;;;5035390;28;20177;-52
2023/08/29 11:42:58;;;;;;;0.50;0.50;;;15.00;99.90;;;;;;5034053;28;20178;-56
2023/08/29 11:45:25;;;;;;;0.40;0.40;;;14.80;99.90;;;;;;5034920;28;20212;-53
2023/08/29 11:47:51;;;;;;;0.40;0.40;;;14.70;99.90;;;;;;5035427;28;20583;-53
2023/08/29 11:50:17;;;;;;;0.50;0.40;;;14.70;99.90;;;;;;5035114;28;20187;-56
2023/08/29 11:52:43;;;;;;;0.80;0.50;;;14.60;99.90;;;;;;5035108;28;20610;-55
2023/08/29 11:55:11;;;;;;;0.50;0.50;;;14.50;99.90;;;;;;5034965;28;20574;-53
2023/08/29 11:57:38;;;;;;;0.50;0.50;;;14.60;99.90;;;;;;5034863;28;20643;-55
2023/08/29 12:00:08;;;;;;;0.30;0.30;;;14.60;99.90;;;;;;5034993;28;20176;-56
2023/08/29 12:02:34;;;;;;;0.50;0.40;;;;;;;;;;5034875;28;20192;-57
2023/08/29 12:04:59;;;;;;;0.50;0.50;;;14.60;99.90;;;;;;5034700;28;20602;-55
2023/08/29 12:07:31;;;;;;;0.30;0.30;;;14.70;99.90;;;;;;5034780;28;20238;-55
2023/08/29 12:10:14;;;;;;;0.40;0.40;;;14.30;99.90;;;;;;5034764;28;20183;-52
2023/08/29 12:12:40;;;;;;;1.20;0.40;;;14.70;99.90;;;;;;5034686;28;20219;-55
2023/08/29 12:15:14;;;;;;;0.40;0.40;;;14.50;99.90;;;;;;5034054;28;20686;-54
2023/08/29 12:17:40;;;;;;;0.77;0.50;;;14.90;99.90;;;;;;5034602;28;20234;-55
2023/08/29 12:20:12;;;;;;;0.30;0.30;;;14.80;99.90;;;;;;5034519;28;20191;-57
2023/08/29 12:22:46;;;;;;;0.40;0.40;;;15.00;99.90;;;;;;5034479;28;20260;-57
2023/08/29 12:25:11;;;;;;;2.00;0.40;;;15.20;99.90;;;;;;5034436;28;20196;-53
2023/08/29 12:27:37;;;;;;;0.40;0.40;;;15.10;99.90;;;;;;5034426;28;20168;-52
2023/08/29 12:30:04;;;;;;;0.40;0.40;;;15.10;99.90;;;;;;5034134;28;20738;-55
2023/08/29 12:32:30;;;;;;;0.40;0.40;;;15.00;99.90;;;;;;5034118;28;20191;-57
2023/08/29 12:34:56;;;;;;;0.30;0.30;;;15.30;99.90;;;;;;5034117;28;20237;-56
2023/08/29 12:37:22;;;;;;;0.40;0.40;;;15.10;99.90;;;;;;5034086;28;20176;-54
2023/08/29 12:39:48;;;;;;;1.90;0.40;;;15.30;99.90;;;;;;5034217;28;20612;-52
2023/08/29 12:42:15;;;;;;;0.43;0.37;;;15.50;99.90;;;;;;5034301;28;20176;-52
2023/08/29 12:44:40;;;;;;;0.40;0.40;;;15.60;99.90;;;;;;5034001;28;20208;-54
2023/08/29 12:47:07;;;;;;;0.40;0.40;;;15.50;99.90;;;;;;5033564;28;20180;-57
2023/08/29 12:49:32;;;;;;;0.47;0.47;;;15.60;99.90;;;;;;5033233;28;20171;-55
2023/08/29 12:51:58;;;;;;;0.40;0.40;;;15.80;99.90;;;;;;5033546;28;20576;-55
2023/08/29 12:54:24;;;;;;;0.93;0.60;;;;;;;;;;5033395;28;20200;-56
2023/08/29 12:56:49;;;;;;;0.50;0.50;;;15.50;99.90;;;;;;5033459;28;20185;-57
2023/08/29 12:59:15;;;;;;;0.40;0.40;;;15.60;99.90;;;;;;5033926;28;20178;-54
2023/08/29 13:01:40;;;;;;;1.17;0.60;;;15.10;99.90;;;;;;5033952;28;20190;-54
2023/08/29 13:04:06;;;;;;;0.40;0.40;;;;;;;;;;5033637;28;20198;-58
2023/08/29 13:06:32;;;;;;;0.60;0.60;;;;;;;;;;5033522;28;20180;-55
2023/08/29 13:08:58;;;;;;;0.40;0.40;;;15.40;99.90;;;;;;5033545;28;20210;-54
2023/08/29 13:11:24;;;;;;;0.73;0.50;;;;;;;;;;5033468;28;20308;-55
2023/08/29 13:13:50;;;;;;;1.03;0.40;;;15.70;99.90;;;;;;5031638;28;20652;-51
2023/08/29 13:16:16;;;;;;;0.37;0.37;;;15.90;99.90;;;;;;5033037;28;20217;-57
2023/08/29 13:18:43;;;;;;;0.37;0.30;;;15.60;99.90;;;;;;5020121;28;20195;-51
2023/08/29 13:21:09;;;;;;;0.43;0.43;;;16.00;99.90;;;;;;5032956;28;20197;-59
2023/08/29 13:23:36;;;;;;;0.30;0.30;;;15.80;99.90;;;;;;5032954;28;20186;-56
2023/08/29 13:26:03;;;;;;;0.60;0.60;;;;;;;;;;5033065;28;20200;-53
2023/08/29 13:28:29;;;;;;;0.40;0.40;;;15.90;99.90;;;;;;5033127;28;20174;-53
2023/08/29 13:30:58;;;;;;;0.30;0.30;;;16.00;99.90;;;;;;5032709;28;20195;-54
2023/08/29 13:33:23;;;;;;;0.60;0.60;;;16.00;99.90;;;;;;5028941;28;20187;-54
2023/08/29 13:35:49;;;;;;;0.40;0.40;;;16.20;99.90;;;;;;5031401;28;20208;-56
2023/08/29 13:38:14;;;;;;;0.50;0.50;;;16.10;99.90;;;;;;5032895;28;20187;-52